NRN weather

Weeze Airport
Weeze, North Rhine-Westphalia, Germany

Public forecast

Using degrees Celsius for public forecast. Weather courtesy of forecast.io.

METAR (pilot weather report)

Retrieved 2019/07/23 04:20 UTC (2 minutes ago):

EDLV 230420Z VRB01KT CAVOK 16/15 Q1022

TAF (pilot weather forecast)

Retrieved 2019/07/23 04:33 UTC (0 seconds ago):

TAF TAF EDLV 230320Z 2304/2324 VRB03KT CAVOK BECMG 2306/2308 10005KT BECMG 2310/2313 04004KT